Byers, Texas
Current Conditions -  °F | °C
As of 7:52 PM on Tuesday 21 Oct 2014 (Local Time) from KSPS Reporting Station
Clear Clear  
Wind Chill: 21°   Ceiling: Unl
Heat Index: 21°   Visibility: 10mi
Dew Point: 11°   Wind: 8mph
Humidity: 53%   Direction: 120°ESE
Pressure: 30.02"   Gusts: NA
Location:  34.07°N, 98.19°W
Report Text: KSPS 220052Z 12007KT 10SM CLR 21/11 A3002 RMK AO2 SLP157 T02110111
Loading
Personal Weather Stations






























Interactive Weather Map
Tropical Storm Tracking
New forecast layout! Learn more

10-Day Weather Forecast

Advertisements
Track Severe Weather on mobile